sensor_id;sensor_type;location;lat;lon;timestamp;P1;durP1;ratioP1;P2;durP2;ratioP2
18048;SDS011;9149;47.002;8.604;2023-06-26T00:00:11;13.05;;;5.72;;
18048;SDS011;9149;47.002;8.604;2023-06-26T00:02:39;8.95;;;5.57;;
18048;SDS011;9149;47.002;8.604;2023-06-26T00:05:08;13.05;;;5.85;;
18048;SDS011;9149;47.002;8.604;2023-06-26T00:07:36;7.72;;;4.90;;
18048;SDS011;9149;47.002;8.604;2023-06-26T00:10:04;9.75;;;5.60;;
18048;SDS011;9149;47.002;8.604;2023-06-26T00:12:32;8.35;;;5.40;;
18048;SDS011;9149;47.002;8.604;2023-06-26T00:14:59;8.50;;;5.60;;
18048;SDS011;9149;47.002;8.604;2023-06-26T00:17:27;10.50;;;5.88;;
18048;SDS011;9149;47.002;8.604;2023-06-26T00:19:55;10.82;;;5.47;;
18048;SDS011;9149;47.002;8.604;2023-06-26T00:22:24;9.48;;;5.68;;
18048;SDS011;9149;47.002;8.604;2023-06-26T00:24:52;11.02;;;6.25;;
18048;SDS011;9149;47.002;8.604;2023-06-26T00:27:20;11.23;;;6.40;;
18048;SDS011;9149;47.002;8.604;2023-06-26T00:29:47;10.90;;;5.47;;
18048;SDS011;9149;47.002;8.604;2023-06-26T00:32:16;11.43;;;5.20;;
18048;SDS011;9149;47.002;8.604;2023-06-26T00:34:44;9.90;;;6.15;;
18048;SDS011;9149;47.002;8.604;2023-06-26T00:37:14;8.35;;;5.45;;
18048;SDS011;9149;47.002;8.604;2023-06-26T00:39:43;8.85;;;5.50;;
18048;SDS011;9149;47.002;8.604;2023-06-26T00:42:10;10.77;;;5.90;;
18048;SDS011;9149;47.002;8.604;2023-06-26T00:44:38;9.68;;;5.85;;
18048;SDS011;9149;47.002;8.604;2023-06-26T00:47:06;10.52;;;6.15;;
18048;SDS011;9149;47.002;8.604;2023-06-26T00:49:33;9.80;;;5.25;;
18048;SDS011;9149;47.002;8.604;2023-06-26T00:52:01;10.82;;;5.93;;
18048;SDS011;9149;47.002;8.604;2023-06-26T00:54:30;11.55;;;6.35;;
18048;SDS011;9149;47.002;8.604;2023-06-26T00:56:59;12.43;;;5.53;;
18048;SDS011;9149;47.002;8.604;2023-06-26T00:59:27;8.77;;;5.35;;
18048;SDS011;9149;47.002;8.604;2023-06-26T01:01:55;8.52;;;5.57;;
18048;SDS011;9149;47.002;8.604;2023-06-26T01:04:22;9.95;;;5.97;;
18048;SDS011;9149;47.002;8.604;2023-06-26T01:06:54;9.02;;;5.75;;
18048;SDS011;9149;47.002;8.604;2023-06-26T01:09:24;12.20;;;5.88;;
18048;SDS011;9149;47.002;8.604;2023-06-26T01:11:52;10.85;;;5.90;;
18048;SDS011;9149;47.002;8.604;2023-06-26T01:14:22;8.57;;;5.95;;
18048;SDS011;9149;47.002;8.604;2023-06-26T01:16:49;12.25;;;6.07;;
18048;SDS011;9149;47.002;8.604;2023-06-26T01:19:19;12.48;;;6.03;;
18048;SDS011;9149;47.002;8.604;2023-06-26T01:21:55;8.50;;;5.93;;
18048;SDS011;9149;47.002;8.604;2023-06-26T01:24:25;9.88;;;6.45;;
18048;SDS011;9149;47.002;8.604;2023-06-26T01:26:59;12.05;;;6.53;;
18048;SDS011;9149;47.002;8.604;2023-06-26T01:29:27;11.45;;;6.18;;
18048;SDS011;9149;47.002;8.604;2023-06-26T01:31:56;12.00;;;5.60;;
18048;SDS011;9149;47.002;8.604;2023-06-26T01:34:23;10.27;;;6.20;;
18048;SDS011;9149;47.002;8.604;2023-06-26T01:36:51;11.50;;;6.28;;
18048;SDS011;9149;47.002;8.604;2023-06-26T01:39:19;11.93;;;6.03;;
18048;SDS011;9149;47.002;8.604;2023-06-26T01:41:47;10.90;;;6.00;;
18048;SDS011;9149;47.002;8.604;2023-06-26T01:44:18;13.63;;;5.90;;
18048;SDS011;9149;47.002;8.604;2023-06-26T01:46:53;10.00;;;5.78;;
18048;SDS011;9149;47.002;8.604;2023-06-26T01:49:24;12.27;;;6.90;;
18048;SDS011;9149;47.002;8.604;2023-06-26T01:51:57;10.63;;;6.15;;
18048;SDS011;9149;47.002;8.604;2023-06-26T01:54:25;10.05;;;6.13;;
18048;SDS011;9149;47.002;8.604;2023-06-26T01:56:57;10.25;;;5.72;;
18048;SDS011;9149;47.002;8.604;2023-06-26T01:59:26;16.13;;;6.38;;
18048;SDS011;9149;47.002;8.604;2023-06-26T02:01:55;10.18;;;5.55;;
18048;SDS011;9149;47.002;8.604;2023-06-26T02:04:23;10.93;;;5.82;;
18048;SDS011;9149;47.002;8.604;2023-06-26T02:06:51;12.07;;;6.15;;
18048;SDS011;9149;47.002;8.604;2023-06-26T02:09:20;8.77;;;5.72;;
18048;SDS011;9149;47.002;8.604;2023-06-26T02:11:47;10.68;;;6.18;;
18048;SDS011;9149;47.002;8.604;2023-06-26T02:14:15;9.38;;;5.57;;
18048;SDS011;9149;47.002;8.604;2023-06-26T02:16:44;12.23;;;6.05;;
18048;SDS011;9149;47.002;8.604;2023-06-26T02:19:11;10.63;;;6.70;;
18048;SDS011;9149;47.002;8.604;2023-06-26T02:21:50;9.13;;;5.93;;
18048;SDS011;9149;47.002;8.604;2023-06-26T02:24:17;10.02;;;5.88;;
18048;SDS011;9149;47.002;8.604;2023-06-26T02:26:45;10.13;;;5.80;;
18048;SDS011;9149;47.002;8.604;2023-06-26T02:29:13;15.73;;;6.22;;
18048;SDS011;9149;47.002;8.604;2023-06-26T02:31:40;9.27;;;5.60;;
18048;SDS011;9149;47.002;8.604;2023-06-26T02:34:09;9.95;;;5.72;;
18048;SDS011;9149;47.002;8.604;2023-06-26T02:36:37;13.15;;;6.55;;
18048;SDS011;9149;47.002;8.604;2023-06-26T02:39:05;11.05;;;5.78;;
18048;SDS011;9149;47.002;8.604;2023-06-26T02:41:33;10.82;;;5.97;;
18048;SDS011;9149;47.002;8.604;2023-06-26T02:44:01;13.48;;;5.70;;
18048;SDS011;9149;47.002;8.604;2023-06-26T02:46:30;10.55;;;5.72;;
18048;SDS011;9149;47.002;8.604;2023-06-26T02:48:57;9.95;;;5.65;;
18048;SDS011;9149;47.002;8.604;2023-06-26T02:51:27;12.00;;;6.10;;
18048;SDS011;9149;47.002;8.604;2023-06-26T02:53:56;14.57;;;6.13;;
18048;SDS011;9149;47.002;8.604;2023-06-26T02:56:24;11.25;;;5.55;;
18048;SDS011;9149;47.002;8.604;2023-06-26T02:58:56;9.30;;;5.78;;
18048;SDS011;9149;47.002;8.604;2023-06-26T03:01:25;9.27;;;5.25;;
18048;SDS011;9149;47.002;8.604;2023-06-26T03:03:52;10.10;;;6.03;;
18048;SDS011;9149;47.002;8.604;2023-06-26T03:06:20;12.10;;;5.82;;
18048;SDS011;9149;47.002;8.604;2023-06-26T03:08:50;13.60;;;6.03;;
18048;SDS011;9149;47.002;8.604;2023-06-26T03:11:17;11.70;;;6.40;;
18048;SDS011;9149;47.002;8.604;2023-06-26T03:13:45;12.30;;;6.30;;
18048;SDS011;9149;47.002;8.604;2023-06-26T03:16:13;13.20;;;6.53;;
18048;SDS011;9149;47.002;8.604;2023-06-26T03:18:41;11.55;;;6.35;;
18048;SDS011;9149;47.002;8.604;2023-06-26T03:21:09;11.07;;;6.35;;
18048;SDS011;9149;47.002;8.604;2023-06-26T03:23:39;11.45;;;5.88;;
18048;SDS011;9149;47.002;8.604;2023-06-26T03:26:08;10.45;;;6.38;;
18048;SDS011;9149;47.002;8.604;2023-06-26T03:28:37;9.77;;;5.88;;
18048;SDS011;9149;47.002;8.604;2023-06-26T03:31:05;16.00;;;6.20;;
18048;SDS011;9149;47.002;8.604;2023-06-26T03:33:32;10.15;;;6.10;;
18048;SDS011;9149;47.002;8.604;2023-06-26T03:36:01;10.07;;;5.90;;
18048;SDS011;9149;47.002;8.604;2023-06-26T03:38:29;15.65;;;6.93;;
18048;SDS011;9149;47.002;8.604;2023-06-26T03:40:58;12.85;;;6.72;;
18048;SDS011;9149;47.002;8.604;2023-06-26T03:43:27;9.93;;;6.00;;
18048;SDS011;9149;47.002;8.604;2023-06-26T03:46:14;12.75;;;6.55;;
18048;SDS011;9149;47.002;8.604;2023-06-26T03:48:42;20.38;;;6.70;;
18048;SDS011;9149;47.002;8.604;2023-06-26T03:51:10;11.23;;;6.05;;
18048;SDS011;9149;47.002;8.604;2023-06-26T03:53:38;11.10;;;6.28;;
18048;SDS011;9149;47.002;8.604;2023-06-26T03:56:05;9.50;;;5.97;;
18048;SDS011;9149;47.002;8.604;2023-06-26T03:58:34;10.02;;;6.00;;
18048;SDS011;9149;47.002;8.604;2023-06-26T04:01:03;11.73;;;6.47;;
18048;SDS011;9149;47.002;8.604;2023-06-26T04:03:31;12.13;;;6.57;;
18048;SDS011;9149;47.002;8.604;2023-06-26T04:05:59;11.00;;;6.32;;
18048;SDS011;9149;47.002;8.604;2023-06-26T04:08:26;16.17;;;6.22;;
18048;SDS011;9149;47.002;8.604;2023-06-26T04:10:55;9.48;;;5.85;;
18048;SDS011;9149;47.002;8.604;2023-06-26T04:13:25;11.38;;;6.93;;
18048;SDS011;9149;47.002;8.604;2023-06-26T04:15:54;12.75;;;6.10;;
18048;SDS011;9149;47.002;8.604;2023-06-26T04:18:21;10.05;;;6.10;;
18048;SDS011;9149;47.002;8.604;2023-06-26T04:23:29;8.35;;;5.50;;
18048;SDS011;9149;47.002;8.604;2023-06-26T04:25:57;10.43;;;5.97;;
18048;SDS011;9149;47.002;8.604;2023-06-26T04:28:25;10.68;;;6.55;;
18048;SDS011;9149;47.002;8.604;2023-06-26T04:30:54;10.65;;;6.43;;
18048;SDS011;9149;47.002;8.604;2023-06-26T04:33:22;15.90;;;7.20;;
18048;SDS011;9149;47.002;8.604;2023-06-26T04:35:49;13.50;;;7.13;;
18048;SDS011;9149;47.002;8.604;2023-06-26T04:38:18;15.52;;;6.95;;
18048;SDS011;9149;47.002;8.604;2023-06-26T04:40:45;11.95;;;6.60;;
18048;SDS011;9149;47.002;8.604;2023-06-26T04:43:13;12.65;;;6.90;;
18048;SDS011;9149;47.002;8.604;2023-06-26T04:45:41;12.68;;;6.32;;
18048;SDS011;9149;47.002;8.604;2023-06-26T04:48:10;13.88;;;6.53;;
18048;SDS011;9149;47.002;8.604;2023-06-26T04:50:37;13.07;;;6.97;;
18048;SDS011;9149;47.002;8.604;2023-06-26T04:53:05;11.75;;;6.38;;
18048;SDS011;9149;47.002;8.604;2023-06-26T04:55:33;14.18;;;6.97;;
18048;SDS011;9149;47.002;8.604;2023-06-26T04:58:03;10.60;;;6.53;;
18048;SDS011;9149;47.002;8.604;2023-06-26T05:00:31;9.98;;;5.88;;
18048;SDS011;9149;47.002;8.604;2023-06-26T05:03:03;13.93;;;6.40;;
18048;SDS011;9149;47.002;8.604;2023-06-26T05:05:32;12.15;;;7.03;;
18048;SDS011;9149;47.002;8.604;2023-06-26T05:08:12;14.55;;;6.88;;
18048;SDS011;9149;47.002;8.604;2023-06-26T05:10:40;11.00;;;6.53;;
18048;SDS011;9149;47.002;8.604;2023-06-26T05:13:08;10.75;;;6.15;;
18048;SDS011;9149;47.002;8.604;2023-06-26T05:15:35;9.65;;;6.07;;
18048;SDS011;9149;47.002;8.604;2023-06-26T05:18:03;12.02;;;6.43;;
18048;SDS011;9149;47.002;8.604;2023-06-26T05:20:35;10.23;;;5.85;;
18048;SDS011;9149;47.002;8.604;2023-06-26T05:23:03;9.20;;;5.50;;
18048;SDS011;9149;47.002;8.604;2023-06-26T05:25:31;10.88;;;6.15;;
18048;SDS011;9149;47.002;8.604;2023-06-26T05:28:00;10.38;;;5.97;;
18048;SDS011;9149;47.002;8.604;2023-06-26T05:30:28;10.00;;;5.82;;
18048;SDS011;9149;47.002;8.604;2023-06-26T05:32:58;9.23;;;5.30;;
18048;SDS011;9149;47.002;8.604;2023-06-26T05:35:27;10.57;;;5.60;;
18048;SDS011;9149;47.002;8.604;2023-06-26T05:37:57;13.13;;;5.70;;
18048;SDS011;9149;47.002;8.604;2023-06-26T05:40:25;10.35;;;5.28;;
18048;SDS011;9149;47.002;8.604;2023-06-26T05:42:52;11.70;;;5.57;;
18048;SDS011;9149;47.002;8.604;2023-06-26T05:45:20;9.48;;;5.35;;
18048;SDS011;9149;47.002;8.604;2023-06-26T05:47:48;10.57;;;5.68;;
18048;SDS011;9149;47.002;8.604;2023-06-26T05:50:17;7.85;;;5.28;;
18048;SDS011;9149;47.002;8.604;2023-06-26T05:52:45;9.57;;;5.53;;
18048;SDS011;9149;47.002;8.604;2023-06-26T05:55:14;15.85;;;5.78;;
18048;SDS011;9149;47.002;8.604;2023-06-26T05:57:42;9.48;;;5.78;;
18048;SDS011;9149;47.002;8.604;2023-06-26T06:00:10;16.95;;;6.05;;
18048;SDS011;9149;47.002;8.604;2023-06-26T06:02:40;8.65;;;5.30;;
18048;SDS011;9149;47.002;8.604;2023-06-26T06:05:08;11.50;;;5.80;;
18048;SDS011;9149;47.002;8.604;2023-06-26T06:07:36;9.35;;;5.15;;
18048;SDS011;9149;47.002;8.604;2023-06-26T06:10:03;9.23;;;5.45;;
18048;SDS011;9149;47.002;8.604;2023-06-26T06:12:32;11.27;;;5.88;;
18048;SDS011;9149;47.002;8.604;2023-06-26T06:15:00;8.10;;;5.15;;
18048;SDS011;9149;47.002;8.604;2023-06-26T06:17:28;20.50;;;6.30;;
18048;SDS011;9149;47.002;8.604;2023-06-26T06:19:56;11.45;;;5.65;;
18048;SDS011;9149;47.002;8.604;2023-06-26T06:22:23;9.95;;;5.47;;
18048;SDS011;9149;47.002;8.604;2023-06-26T06:24:52;13.93;;;5.50;;
18048;SDS011;9149;47.002;8.604;2023-06-26T06:27:19;12.60;;;5.28;;
18048;SDS011;9149;47.002;8.604;2023-06-26T06:29:48;10.43;;;5.80;;
18048;SDS011;9149;47.002;8.604;2023-06-26T06:32:16;10.35;;;5.82;;
18048;SDS011;9149;47.002;8.604;2023-06-26T06:34:44;8.68;;;5.13;;
18048;SDS011;9149;47.002;8.604;2023-06-26T06:37:12;9.20;;;5.40;;
18048;SDS011;9149;47.002;8.604;2023-06-26T06:39:39;8.93;;;4.93;;
18048;SDS011;9149;47.002;8.604;2023-06-26T06:42:07;9.55;;;4.90;;
18048;SDS011;9149;47.002;8.604;2023-06-26T06:44:35;8.45;;;5.22;;
18048;SDS011;9149;47.002;8.604;2023-06-26T06:47:04;8.00;;;4.93;;
18048;SDS011;9149;47.002;8.604;2023-06-26T06:49:32;9.48;;;5.55;;
18048;SDS011;9149;47.002;8.604;2023-06-26T06:51:59;11.77;;;5.15;;
18048;SDS011;9149;47.002;8.604;2023-06-26T06:54:27;13.57;;;5.05;;
18048;SDS011;9149;47.002;8.604;2023-06-26T06:56:55;11.43;;;4.90;;
18048;SDS011;9149;47.002;8.604;2023-06-26T06:59:22;12.57;;;5.15;;
18048;SDS011;9149;47.002;8.604;2023-06-26T07:01:50;8.18;;;4.93;;
18048;SDS011;9149;47.002;8.604;2023-06-26T07:04:19;9.75;;;5.07;;
18048;SDS011;9149;47.002;8.604;2023-06-26T07:06:47;9.63;;;5.88;;
18048;SDS011;9149;47.002;8.604;2023-06-26T07:09:14;10.88;;;4.90;;
18048;SDS011;9149;47.002;8.604;2023-06-26T07:11:42;10.80;;;4.97;;
18048;SDS011;9149;47.002;8.604;2023-06-26T07:14:10;9.73;;;5.43;;
18048;SDS011;9149;47.002;8.604;2023-06-26T07:16:37;8.45;;;4.68;;
18048;SDS011;9149;47.002;8.604;2023-06-26T07:19:05;9.93;;;5.07;;
18048;SDS011;9149;47.002;8.604;2023-06-26T07:21:34;9.60;;;5.20;;
18048;SDS011;9149;47.002;8.604;2023-06-26T07:24:01;9.43;;;4.65;;
18048;SDS011;9149;47.002;8.604;2023-06-26T07:26:29;7.68;;;4.75;;
18048;SDS011;9149;47.002;8.604;2023-06-26T07:29:11;7.90;;;4.88;;
18048;SDS011;9149;47.002;8.604;2023-06-26T07:31:38;7.30;;;4.70;;
18048;SDS011;9149;47.002;8.604;2023-06-26T07:34:06;8.32;;;5.18;;
18048;SDS011;9149;47.002;8.604;2023-06-26T07:36:35;9.77;;;4.78;;
18048;SDS011;9149;47.002;8.604;2023-06-26T07:39:03;8.80;;;4.70;;
18048;SDS011;9149;47.002;8.604;2023-06-26T07:41:30;10.85;;;5.20;;
18048;SDS011;9149;47.002;8.604;2023-06-26T07:43:58;9.07;;;5.03;;
18048;SDS011;9149;47.002;8.604;2023-06-26T07:46:26;7.72;;;4.70;;
18048;SDS011;9149;47.002;8.604;2023-06-26T07:48:54;7.07;;;4.93;;
18048;SDS011;9149;47.002;8.604;2023-06-26T07:51:21;7.82;;;5.22;;
18048;SDS011;9149;47.002;8.604;2023-06-26T07:53:51;7.25;;;4.75;;
18048;SDS011;9149;47.002;8.604;2023-06-26T07:56:18;10.70;;;5.53;;
18048;SDS011;9149;47.002;8.604;2023-06-26T07:58:46;8.88;;;4.95;;
18048;SDS011;9149;47.002;8.604;2023-06-26T08:01:14;8.00;;;4.80;;
18048;SDS011;9149;47.002;8.604;2023-06-26T08:03:42;10.38;;;4.82;;
18048;SDS011;9149;47.002;8.604;2023-06-26T08:06:10;14.07;;;5.03;;
18048;SDS011;9149;47.002;8.604;2023-06-26T08:08:38;8.85;;;5.40;;
18048;SDS011;9149;47.002;8.604;2023-06-26T08:11:07;8.15;;;4.93;;
18048;SDS011;9149;47.002;8.604;2023-06-26T08:13:35;11.32;;;4.85;;
18048;SDS011;9149;47.002;8.604;2023-06-26T08:16:03;9.48;;;4.82;;
18048;SDS011;9149;47.002;8.604;2023-06-26T08:18:30;12.63;;;5.25;;
18048;SDS011;9149;47.002;8.604;2023-06-26T08:20:58;16.30;;;4.95;;
18048;SDS011;9149;47.002;8.604;2023-06-26T08:23:25;10.10;;;5.07;;
18048;SDS011;9149;47.002;8.604;2023-06-26T08:25:53;14.38;;;4.90;;
18048;SDS011;9149;47.002;8.604;2023-06-26T08:28:22;9.35;;;4.60;;
18048;SDS011;9149;47.002;8.604;2023-06-26T08:30:50;7.80;;;4.68;;
18048;SDS011;9149;47.002;8.604;2023-06-26T08:33:17;10.30;;;4.93;;
18048;SDS011;9149;47.002;8.604;2023-06-26T08:35:45;10.35;;;4.72;;
18048;SDS011;9149;47.002;8.604;2023-06-26T08:38:13;6.38;;;4.10;;
18048;SDS011;9149;47.002;8.604;2023-06-26T08:40:46;6.72;;;4.40;;
18048;SDS011;9149;47.002;8.604;2023-06-26T08:43:14;11.35;;;4.65;;
18048;SDS011;9149;47.002;8.604;2023-06-26T08:45:43;7.32;;;4.85;;
18048;SDS011;9149;47.002;8.604;2023-06-26T08:48:12;5.90;;;4.25;;
18048;SDS011;9149;47.002;8.604;2023-06-26T08:50:40;6.85;;;4.70;;
18048;SDS011;9149;47.002;8.604;2023-06-26T08:53:09;7.88;;;5.05;;
18048;SDS011;9149;47.002;8.604;2023-06-26T08:55:39;8.43;;;5.25;;
18048;SDS011;9149;47.002;8.604;2023-06-26T08:58:08;7.13;;;4.50;;
18048;SDS011;9149;47.002;8.604;2023-06-26T09:00:36;12.95;;;4.43;;
18048;SDS011;9149;47.002;8.604;2023-06-26T09:03:06;7.38;;;4.43;;
18048;SDS011;9149;47.002;8.604;2023-06-26T09:05:34;7.20;;;3.92;;
18048;SDS011;9149;47.002;8.604;2023-06-26T09:08:02;7.20;;;4.03;;
18048;SDS011;9149;47.002;8.604;2023-06-26T09:10:30;7.50;;;4.40;;
18048;SDS011;9149;47.002;8.604;2023-06-26T09:12:57;7.07;;;4.18;;
18048;SDS011;9149;47.002;8.604;2023-06-26T09:15:27;6.25;;;4.20;;
18048;SDS011;9149;47.002;8.604;2023-06-26T09:17:56;6.20;;;4.22;;
18048;SDS011;9149;47.002;8.604;2023-06-26T09:20:26;13.02;;;4.38;;
18048;SDS011;9149;47.002;8.604;2023-06-26T09:22:54;7.15;;;4.35;;
18048;SDS011;9149;47.002;8.604;2023-06-26T09:25:22;6.53;;;4.30;;
18048;SDS011;9149;47.002;8.604;2023-06-26T09:27:51;11.13;;;4.40;;
18048;SDS011;9149;47.002;8.604;2023-06-26T09:30:19;6.30;;;3.78;;
18048;SDS011;9149;47.002;8.604;2023-06-26T09:32:47;6.90;;;4.03;;
18048;SDS011;9149;47.002;8.604;2023-06-26T09:35:15;6.72;;;3.67;;
18048;SDS011;9149;47.002;8.604;2023-06-26T09:37:44;6.60;;;3.55;;
18048;SDS011;9149;47.002;8.604;2023-06-26T09:40:13;6.88;;;4.00;;
18048;SDS011;9149;47.002;8.604;2023-06-26T09:42:41;8.05;;;4.00;;
18048;SDS011;9149;47.002;8.604;2023-06-26T09:45:12;6.45;;;3.90;;
18048;SDS011;9149;47.002;8.604;2023-06-26T09:47:44;7.25;;;3.60;;
18048;SDS011;9149;47.002;8.604;2023-06-26T09:50:20;6.40;;;3.78;;
18048;SDS011;9149;47.002;8.604;2023-06-26T09:52:51;6.82;;;4.10;;
18048;SDS011;9149;47.002;8.604;2023-06-26T09:55:19;6.07;;;3.40;;
18048;SDS011;9149;47.002;8.604;2023-06-26T09:57:49;6.85;;;3.72;;
18048;SDS011;9149;47.002;8.604;2023-06-26T10:00:17;6.85;;;3.72;;
18048;SDS011;9149;47.002;8.604;2023-06-26T10:02:45;5.10;;;3.60;;
18048;SDS011;9149;47.002;8.604;2023-06-26T10:05:13;6.85;;;4.03;;
18048;SDS011;9149;47.002;8.604;2023-06-26T10:07:40;5.93;;;3.50;;
18048;SDS011;9149;47.002;8.604;2023-06-26T10:10:10;8.68;;;3.92;;
18048;SDS011;9149;47.002;8.604;2023-06-26T10:12:38;7.57;;;3.92;;
18048;SDS011;9149;47.002;8.604;2023-06-26T10:15:06;5.55;;;3.58;;
18048;SDS011;9149;47.002;8.604;2023-06-26T10:17:38;6.32;;;3.50;;
18048;SDS011;9149;47.002;8.604;2023-06-26T10:20:08;6.00;;;4.10;;
18048;SDS011;9149;47.002;8.604;2023-06-26T10:22:37;5.95;;;4.03;;
18048;SDS011;9149;47.002;8.604;2023-06-26T10:25:07;6.97;;;3.88;;
18048;SDS011;9149;47.002;8.604;2023-06-26T10:27:40;5.72;;;3.80;;
18048;SDS011;9149;47.002;8.604;2023-06-26T10:30:11;5.90;;;3.65;;
18048;SDS011;9149;47.002;8.604;2023-06-26T10:32:40;6.43;;;4.05;;
18048;SDS011;9149;47.002;8.604;2023-06-26T10:35:08;5.40;;;3.70;;
18048;SDS011;9149;47.002;8.604;2023-06-26T10:37:41;6.63;;;3.65;;
18048;SDS011;9149;47.002;8.604;2023-06-26T10:40:09;6.57;;;4.00;;
18048;SDS011;9149;47.002;8.604;2023-06-26T10:42:39;6.00;;;3.83;;
18048;SDS011;9149;47.002;8.604;2023-06-26T10:45:10;5.47;;;3.55;;
18048;SDS011;9149;47.002;8.604;2023-06-26T10:47:39;5.25;;;3.78;;
18048;SDS011;9149;47.002;8.604;2023-06-26T10:55:32;7.95;;;4.43;;
18048;SDS011;9149;47.002;8.604;2023-06-26T10:58:01;13.65;;;4.20;;
18048;SDS011;9149;47.002;8.604;2023-06-26T11:00:29;10.43;;;3.90;;
18048;SDS011;9149;47.002;8.604;2023-06-26T11:02:57;7.20;;;3.85;;
18048;SDS011;9149;47.002;8.604;2023-06-26T11:05:27;6.90;;;4.18;;
18048;SDS011;9149;47.002;8.604;2023-06-26T11:08:03;10.55;;;4.18;;
18048;SDS011;9149;47.002;8.604;2023-06-26T11:13:14;7.57;;;4.18;;
18048;SDS011;9149;47.002;8.604;2023-06-26T11:15:43;6.30;;;3.90;;
18048;SDS011;9149;47.002;8.604;2023-06-26T11:18:12;8.38;;;4.20;;
18048;SDS011;9149;47.002;8.604;2023-06-26T11:20:39;9.40;;;4.78;;
18048;SDS011;9149;47.002;8.604;2023-06-26T11:23:07;6.32;;;3.90;;
18048;SDS011;9149;47.002;8.604;2023-06-26T11:25:36;13.23;;;4.18;;
18048;SDS011;9149;47.002;8.604;2023-06-26T11:28:04;7.63;;;4.15;;
18048;SDS011;9149;47.002;8.604;2023-06-26T11:30:34;9.85;;;4.28;;
18048;SDS011;9149;47.002;8.604;2023-06-26T11:33:03;7.75;;;4.22;;
18048;SDS011;9149;47.002;8.604;2023-06-26T11:35:31;12.00;;;4.05;;
18048;SDS011;9149;47.002;8.604;2023-06-26T11:37:59;6.18;;;4.18;;
18048;SDS011;9149;47.002;8.604;2023-06-26T11:40:31;9.07;;;4.00;;
18048;SDS011;9149;47.002;8.604;2023-06-26T11:43:00;5.40;;;3.40;;
18048;SDS011;9149;47.002;8.604;2023-06-26T11:45:28;6.90;;;4.07;;
18048;SDS011;9149;47.002;8.604;2023-06-26T11:47:57;5.30;;;3.55;;
18048;SDS011;9149;47.002;8.604;2023-06-26T11:50:25;8.57;;;4.10;;
18048;SDS011;9149;47.002;8.604;2023-06-26T11:52:54;7.85;;;4.25;;
18048;SDS011;9149;47.002;8.604;2023-06-26T11:55:22;5.93;;;3.70;;
18048;SDS011;9149;47.002;8.604;2023-06-26T11:57:50;9.23;;;3.95;;
18048;SDS011;9149;47.002;8.604;2023-06-26T12:00:17;13.15;;;3.80;;
18048;SDS011;9149;47.002;8.604;2023-06-26T12:02:45;6.13;;;4.00;;
18048;SDS011;9149;47.002;8.604;2023-06-26T12:05:15;6.60;;;3.58;;
18048;SDS011;9149;47.002;8.604;2023-06-26T12:07:45;7.85;;;4.50;;
18048;SDS011;9149;47.002;8.604;2023-06-26T12:10:14;7.68;;;3.67;;
18048;SDS011;9149;47.002;8.604;2023-06-26T12:12:42;7.05;;;4.10;;
18048;SDS011;9149;47.002;8.604;2023-06-26T12:15:13;9.55;;;4.00;;
18048;SDS011;9149;47.002;8.604;2023-06-26T12:17:41;6.43;;;3.88;;
18048;SDS011;9149;47.002;8.604;2023-06-26T12:20:19;7.93;;;3.97;;
18048;SDS011;9149;47.002;8.604;2023-06-26T12:22:47;7.00;;;3.80;;
18048;SDS011;9149;47.002;8.604;2023-06-26T12:25:15;5.90;;;4.00;;
18048;SDS011;9149;47.002;8.604;2023-06-26T12:27:44;6.15;;;4.00;;
18048;SDS011;9149;47.002;8.604;2023-06-26T12:30:12;6.68;;;3.30;;
18048;SDS011;9149;47.002;8.604;2023-06-26T12:32:40;5.97;;;3.58;;
18048;SDS011;9149;47.002;8.604;2023-06-26T12:35:11;7.00;;;4.00;;
18048;SDS011;9149;47.002;8.604;2023-06-26T12:37:41;8.57;;;3.67;;
18048;SDS011;9149;47.002;8.604;2023-06-26T12:40:16;6.97;;;2.92;;
18048;SDS011;9149;47.002;8.604;2023-06-26T12:42:45;6.80;;;3.75;;
18048;SDS011;9149;47.002;8.604;2023-06-26T12:45:13;4.97;;;3.22;;
18048;SDS011;9149;47.002;8.604;2023-06-26T12:48:06;5.93;;;3.60;;
18048;SDS011;9149;47.002;8.604;2023-06-26T12:50:36;6.68;;;3.75;;
18048;SDS011;9149;47.002;8.604;2023-06-26T12:53:06;7.55;;;3.90;;
18048;SDS011;9149;47.002;8.604;2023-06-26T12:55:34;6.53;;;3.90;;
18048;SDS011;9149;47.002;8.604;2023-06-26T12:58:03;7.75;;;3.65;;
18048;SDS011;9149;47.002;8.604;2023-06-26T13:00:31;8.85;;;4.03;;
18048;SDS011;9149;47.002;8.604;2023-06-26T13:03:00;9.55;;;3.80;;
18048;SDS011;9149;47.002;8.604;2023-06-26T13:05:28;5.93;;;3.75;;
18048;SDS011;9149;47.002;8.604;2023-06-26T13:07:55;5.28;;;3.40;;
18048;SDS011;9149;47.002;8.604;2023-06-26T13:10:26;5.43;;;3.55;;
18048;SDS011;9149;47.002;8.604;2023-06-26T13:12:55;12.05;;;3.35;;
18048;SDS011;9149;47.002;8.604;2023-06-26T13:15:23;8.88;;;3.80;;
18048;SDS011;9149;47.002;8.604;2023-06-26T13:17:50;7.70;;;3.97;;
18048;SDS011;9149;47.002;8.604;2023-06-26T13:20:18;5.80;;;4.03;;
18048;SDS011;9149;47.002;8.604;2023-06-26T13:22:46;7.78;;;3.33;;
18048;SDS011;9149;47.002;8.604;2023-06-26T13:25:14;6.60;;;3.97;;
18048;SDS011;9149;47.002;8.604;2023-06-26T13:27:43;4.78;;;3.38;;
18048;SDS011;9149;47.002;8.604;2023-06-26T13:30:10;6.13;;;3.78;;
18048;SDS011;9149;47.002;8.604;2023-06-26T13:32:38;8.05;;;3.92;;
18048;SDS011;9149;47.002;8.604;2023-06-26T13:35:06;7.82;;;3.88;;
18048;SDS011;9149;47.002;8.604;2023-06-26T13:37:35;7.38;;;3.50;;
18048;SDS011;9149;47.002;8.604;2023-06-26T13:40:03;7.30;;;4.60;;
18048;SDS011;9149;47.002;8.604;2023-06-26T13:42:36;7.50;;;4.25;;
18048;SDS011;9149;47.002;8.604;2023-06-26T13:45:07;9.65;;;4.28;;
18048;SDS011;9149;47.002;8.604;2023-06-26T13:47:52;7.85;;;4.63;;
18048;SDS011;9149;47.002;8.604;2023-06-26T13:50:20;8.43;;;4.18;;
18048;SDS011;9149;47.002;8.604;2023-06-26T13:52:47;8.98;;;4.82;;
18048;SDS011;9149;47.002;8.604;2023-06-26T13:55:15;10.13;;;4.95;;
18048;SDS011;9149;47.002;8.604;2023-06-26T13:57:43;7.93;;;4.90;;
18048;SDS011;9149;47.002;8.604;2023-06-26T14:00:12;10.30;;;4.68;;
18048;SDS011;9149;47.002;8.604;2023-06-26T14:02:42;8.20;;;4.78;;
18048;SDS011;9149;47.002;8.604;2023-06-26T14:05:11;6.70;;;4.85;;
18048;SDS011;9149;47.002;8.604;2023-06-26T14:07:39;12.20;;;5.15;;
18048;SDS011;9149;47.002;8.604;2023-06-26T14:10:06;7.90;;;5.10;;
18048;SDS011;9149;47.002;8.604;2023-06-26T14:12:34;9.63;;;4.97;;
18048;SDS011;9149;47.002;8.604;2023-06-26T14:15:02;21.70;;;4.88;;
18048;SDS011;9149;47.002;8.604;2023-06-26T14:17:32;7.38;;;4.53;;
18048;SDS011;9149;47.002;8.604;2023-06-26T14:20:00;8.50;;;5.22;;
18048;SDS011;9149;47.002;8.604;2023-06-26T14:22:27;12.07;;;4.38;;
18048;SDS011;9149;47.002;8.604;2023-06-26T14:24:55;8.57;;;4.72;;
18048;SDS011;9149;47.002;8.604;2023-06-26T14:27:22;7.82;;;4.75;;
18048;SDS011;9149;47.002;8.604;2023-06-26T14:29:50;7.82;;;5.03;;
18048;SDS011;9149;47.002;8.604;2023-06-26T14:32:18;16.90;;;5.20;;
18048;SDS011;9149;47.002;8.604;2023-06-26T14:34:47;9.93;;;5.20;;
18048;SDS011;9149;47.002;8.604;2023-06-26T14:37:14;6.85;;;4.60;;
18048;SDS011;9149;47.002;8.604;2023-06-26T14:39:44;7.75;;;5.13;;
18048;SDS011;9149;47.002;8.604;2023-06-26T14:42:12;8.18;;;4.88;;
18048;SDS011;9149;47.002;8.604;2023-06-26T14:44:42;8.90;;;4.65;;
18048;SDS011;9149;47.002;8.604;2023-06-26T14:47:13;9.98;;;4.88;;
18048;SDS011;9149;47.002;8.604;2023-06-26T14:49:41;7.55;;;4.75;;
18048;SDS011;9149;47.002;8.604;2023-06-26T14:52:10;12.80;;;4.72;;
18048;SDS011;9149;47.002;8.604;2023-06-26T14:54:39;10.70;;;4.45;;
18048;SDS011;9149;47.002;8.604;2023-06-26T14:57:07;8.88;;;5.05;;
18048;SDS011;9149;47.002;8.604;2023-06-26T14:59:34;8.30;;;4.55;;
18048;SDS011;9149;47.002;8.604;2023-06-26T15:02:02;10.05;;;5.10;;
18048;SDS011;9149;47.002;8.604;2023-06-26T15:04:31;8.45;;;4.75;;
18048;SDS011;9149;47.002;8.604;2023-06-26T15:06:59;7.53;;;4.60;;
18048;SDS011;9149;47.002;8.604;2023-06-26T15:09:28;14.02;;;4.70;;
18048;SDS011;9149;47.002;8.604;2023-06-26T15:11:56;7.30;;;4.70;;
18048;SDS011;9149;47.002;8.604;2023-06-26T15:17:10;9.57;;;5.22;;